createdAt,value
2018-07-25T00:00:54.677Z,16.6
2018-07-25T00:01:56.319Z,16.5
2018-07-25T00:02:57.963Z,16.5
2018-07-25T00:03:59.611Z,16.5
2018-07-25T00:05:01.254Z,16.5
2018-07-25T00:06:02.907Z,16.4
2018-07-25T00:07:04.541Z,16.4
2018-07-25T00:08:06.179Z,16.5
2018-07-25T00:09:07.829Z,16.4
2018-07-25T00:10:09.471Z,16.4
2018-07-25T00:11:11.103Z,16.2
2018-07-25T00:12:12.744Z,16.2
2018-07-25T00:13:14.390Z,16.3
2018-07-25T00:14:16.034Z,16.3
2018-07-25T00:15:17.679Z,16.3
2018-07-25T00:16:19.328Z,16.2
2018-07-25T00:17:20.966Z,16.3
2018-07-25T00:18:22.605Z,16.2
2018-07-25T00:19:24.239Z,16.3
2018-07-25T00:20:25.872Z,16.2
2018-07-25T00:21:27.567Z,16.2
2018-07-25T00:22:29.160Z,16.1
2018-07-25T00:23:30.801Z,16.2
2018-07-25T00:24:32.433Z,16.1
2018-07-25T00:25:34.072Z,16.2
2018-07-25T00:26:35.713Z,16.2
2018-07-25T00:27:37.353Z,16.1
2018-07-25T00:28:38.998Z,16.0
2018-07-25T00:29:40.635Z,16.0
2018-07-25T00:30:42.275Z,15.9
2018-07-25T00:31:43.918Z,15.9
2018-07-25T00:32:45.560Z,16.0
2018-07-25T00:33:47.204Z,15.9
2018-07-25T00:34:48.843Z,15.9
2018-07-25T00:35:50.497Z,15.9
2018-07-25T00:36:52.141Z,15.8
2018-07-25T00:37:53.782Z,15.8
2018-07-25T00:38:55.428Z,15.9
2018-07-25T00:39:57.075Z,15.8
2018-07-25T00:40:58.710Z,15.7
2018-07-25T00:42:01.322Z,15.8
2018-07-25T00:43:02.958Z,15.5
2018-07-25T00:44:04.608Z,15.6
2018-07-25T00:45:06.244Z,15.7
2018-07-25T00:46:07.881Z,15.6
2018-07-25T00:47:09.516Z,15.6
2018-07-25T00:48:11.152Z,15.7
2018-07-25T00:49:12.801Z,15.7
2018-07-25T00:50:14.436Z,15.6
2018-07-25T00:51:16.080Z,15.6
2018-07-25T00:52:17.724Z,15.6
2018-07-25T00:53:19.356Z,15.6
2018-07-25T00:54:20.997Z,15.6
2018-07-25T00:55:22.695Z,15.8
2018-07-25T00:56:24.303Z,16.0
2018-07-25T00:57:26.053Z,16.1
2018-07-25T00:58:27.694Z,16.3
2018-07-25T00:59:29.330Z,16.2
2018-07-25T01:00:30.971Z,16.1
2018-07-25T01:01:32.606Z,16.0
2018-07-25T01:02:34.254Z,15.9
2018-07-25T01:03:35.905Z,15.9
2018-07-25T01:04:37.556Z,15.7
2018-07-25T01:05:39.210Z,15.7
2018-07-25T01:06:40.849Z,15.6
2018-07-25T01:07:42.484Z,15.6
2018-07-25T01:08:44.136Z,15.6
2018-07-25T01:09:45.772Z,15.6
2018-07-25T01:10:47.404Z,15.5
2018-07-25T01:11:49.046Z,15.5
2018-07-25T01:12:50.691Z,15.5
2018-07-25T01:13:52.327Z,15.4
2018-07-25T01:14:53.966Z,15.4
2018-07-25T01:15:55.596Z,15.4
2018-07-25T01:16:57.234Z,15.3
2018-07-25T01:17:58.870Z,15.2
2018-07-25T01:19:00.519Z,15.4
2018-07-25T01:20:02.156Z,15.8
2018-07-25T01:21:03.811Z,15.6
2018-07-25T01:22:05.448Z,15.9
2018-07-25T01:23:07.999Z,16.0
2018-07-25T01:24:09.643Z,15.9
2018-07-25T01:25:11.283Z,15.6
2018-07-25T01:26:12.920Z,15.6
2018-07-25T01:27:14.560Z,15.5
2018-07-25T01:28:16.206Z,15.4
2018-07-25T01:29:17.844Z,15.4
2018-07-25T01:30:19.482Z,15.4
2018-07-25T01:31:21.124Z,15.4
2018-07-25T01:32:22.759Z,15.2
2018-07-25T01:33:24.407Z,15.2
2018-07-25T01:34:26.053Z,15.2
2018-07-25T01:35:27.692Z,15.1
2018-07-25T01:36:29.326Z,15.1
2018-07-25T01:37:30.963Z,15.1
2018-07-25T01:38:32.601Z,15.1
2018-07-25T01:39:34.252Z,15.2
2018-07-25T01:40:35.893Z,15.4
2018-07-25T01:41:37.541Z,15.5
2018-07-25T01:42:39.174Z,15.6
2018-07-25T01:43:40.826Z,15.6
2018-07-25T01:44:42.474Z,15.8
2018-07-25T01:45:44.111Z,15.7
2018-07-25T01:46:45.753Z,15.6
2018-07-25T01:47:47.389Z,15.6
2018-07-25T01:48:49.023Z,15.6
2018-07-25T01:49:50.665Z,15.7
2018-07-25T01:50:52.307Z,15.6
2018-07-25T01:51:53.938Z,15.8
2018-07-25T01:52:55.576Z,15.7
2018-07-25T01:53:57.218Z,15.5
2018-07-25T01:54:58.862Z,15.5
2018-07-25T02:01:07.347Z,15.3
2018-07-25T02:02:08.978Z,15.4
2018-07-25T02:04:00.841Z,15.5
2018-07-25T02:05:02.495Z,15.6
2018-07-25T02:06:54.425Z,15.6
2018-07-25T02:07:56.060Z,15.8
2018-07-25T02:09:47.991Z,15.6
2018-07-25T02:10:49.628Z,15.7
2018-07-25T02:12:41.466Z,15.8
2018-07-25T02:13:43.106Z,15.7
2018-07-25T02:15:34.976Z,15.6
2018-07-25T02:16:36.619Z,15.7
2018-07-25T02:18:28.501Z,15.5
2018-07-25T02:19:30.186Z,-40.0
2018-07-25T02:21:22.094Z,15.4
2018-07-25T02:22:23.728Z,15.5
2018-07-25T02:24:15.635Z,15.5
2018-07-25T02:25:17.271Z,15.5
2018-07-25T02:27:09.214Z,15.4
2018-07-25T02:28:10.856Z,15.5
2018-07-25T02:29:12.507Z,15.4
2018-07-25T02:30:14.138Z,15.4
2018-07-25T02:31:15.777Z,15.6
2018-07-25T02:32:18.101Z,-40.0
2018-07-25T02:33:19.759Z,-40.0
2018-07-25T02:34:21.405Z,-40.0
2018-07-25T02:35:23.041Z,15.3
2018-07-25T02:36:24.688Z,15.3
2018-07-25T02:37:26.320Z,15.4
2018-07-25T02:38:27.961Z,15.4
2018-07-25T02:39:29.605Z,15.3
2018-07-25T02:40:31.252Z,15.4
2018-07-25T02:41:32.894Z,15.3
2018-07-25T02:42:34.556Z,15.2
2018-07-25T02:43:36.220Z,15.2
2018-07-25T02:44:37.797Z,15.2
2018-07-25T02:45:39.432Z,15.1
2018-07-25T02:46:41.075Z,15.1
2018-07-25T02:47:42.719Z,15.2
2018-07-25T02:48:44.354Z,15.2
2018-07-25T02:49:45.995Z,15.1
2018-07-25T02:50:47.639Z,15.1
2018-07-25T02:51:49.351Z,15.3
2018-07-25T02:52:51.013Z,15.2
2018-07-25T02:53:52.655Z,15.0
2018-07-25T02:54:54.295Z,15.1
2018-07-25T02:55:55.942Z,15.0
2018-07-25T02:56:57.686Z,15.1
2018-07-25T02:57:59.171Z,14.9
2018-07-25T02:59:00.813Z,15.0
2018-07-25T03:00:02.460Z,14.9
2018-07-25T03:01:04.105Z,15.0
2018-07-25T03:02:05.756Z,15.0
2018-07-25T03:03:07.386Z,14.9
2018-07-25T03:04:09.029Z,15.0
2018-07-25T03:05:10.663Z,14.9
2018-07-25T03:06:12.302Z,15.0
2018-07-25T03:07:13.942Z,15.0
2018-07-25T03:08:15.587Z,15.0
2018-07-25T03:09:17.220Z,14.9
2018-07-25T03:10:18.866Z,15.0
2018-07-25T03:11:20.506Z,14.8
2018-07-25T03:12:22.151Z,14.7
2018-07-25T03:13:23.802Z,14.6
2018-07-25T03:14:25.433Z,14.6
2018-07-25T03:15:27.084Z,14.5
2018-07-25T03:16:28.720Z,14.5
2018-07-25T03:17:30.367Z,14.4
2018-07-25T03:18:31.998Z,14.3
2018-07-25T03:19:33.641Z,14.3
2018-07-25T03:20:35.273Z,14.3
2018-07-25T03:21:36.916Z,14.3
2018-07-25T03:22:38.563Z,14.4
2018-07-25T03:23:40.209Z,14.4
2018-07-25T03:24:41.869Z,14.4
2018-07-25T03:25:43.499Z,14.4
2018-07-25T03:26:45.143Z,14.2
2018-07-25T03:27:46.788Z,14.3
2018-07-25T03:28:48.431Z,14.3
2018-07-25T03:29:50.081Z,14.4
2018-07-25T03:30:51.720Z,14.3
2018-07-25T03:31:53.368Z,14.4
2018-07-25T03:32:55.010Z,14.6
2018-07-25T03:33:56.663Z,14.7
2018-07-25T03:34:58.299Z,14.6
2018-07-25T03:35:59.948Z,14.7
2018-07-25T03:37:01.591Z,14.7
2018-07-25T03:38:03.240Z,14.6
2018-07-25T03:39:04.881Z,14.5
2018-07-25T03:40:06.528Z,14.7
2018-07-25T03:41:08.171Z,14.5
2018-07-25T03:42:09.817Z,14.4
2018-07-25T03:43:11.460Z,14.4
2018-07-25T03:44:13.104Z,14.4
2018-07-25T03:45:14.755Z,14.3
2018-07-25T03:46:16.394Z,14.3
2018-07-25T03:47:18.045Z,14.3
2018-07-25T03:48:19.689Z,14.3
2018-07-25T03:49:21.330Z,14.4
2018-07-25T03:50:22.974Z,14.4
2018-07-25T03:51:24.619Z,14.4
2018-07-25T03:52:26.263Z,14.4
2018-07-25T03:53:27.907Z,14.4
2018-07-25T03:54:29.554Z,14.3
2018-07-25T03:55:31.215Z,14.3
2018-07-25T03:56:32.864Z,14.4
2018-07-25T03:57:34.506Z,14.4
2018-07-25T03:58:36.148Z,14.3
2018-07-25T03:59:37.802Z,14.3
2018-07-25T04:00:39.449Z,14.3
2018-07-25T04:01:41.093Z,14.3
2018-07-25T04:02:42.843Z,14.2
2018-07-25T04:03:44.385Z,14.0
2018-07-25T04:04:46.028Z,14.1
2018-07-25T04:05:47.674Z,14.0
2018-07-25T04:06:49.314Z,14.0
2018-07-25T04:07:50.963Z,13.9
2018-07-25T04:08:52.606Z,14.1
2018-07-25T04:09:54.253Z,14.0
2018-07-25T04:10:55.895Z,14.2
2018-07-25T04:11:57.542Z,14.2
2018-07-25T04:12:59.187Z,14.2
2018-07-25T04:14:00.836Z,14.2
2018-07-25T04:15:02.476Z,14.3
2018-07-25T04:16:05.042Z,14.4
2018-07-25T04:17:06.686Z,14.3
2018-07-25T04:18:08.329Z,14.3
2018-07-25T04:19:09.977Z,14.3
2018-07-25T04:20:11.623Z,14.2
2018-07-25T04:21:13.267Z,14.3
2018-07-25T04:22:14.917Z,14.2
2018-07-25T04:23:16.564Z,14.3
2018-07-25T04:24:18.209Z,14.2
2018-07-25T04:25:19.857Z,14.3
2018-07-25T04:26:21.501Z,14.3
2018-07-25T04:27:23.144Z,14.3
2018-07-25T04:28:24.785Z,14.3
2018-07-25T04:29:26.433Z,14.2
2018-07-25T04:30:28.076Z,14.2
2018-07-25T04:31:29.724Z,14.3
2018-07-25T04:32:31.367Z,14.3
2018-07-25T04:33:33.008Z,14.3
2018-07-25T04:34:34.650Z,14.3
2018-07-25T04:35:36.299Z,14.5
2018-07-25T04:36:37.952Z,14.5
2018-07-25T04:37:39.599Z,14.5
2018-07-25T04:38:41.252Z,14.4
2018-07-25T04:39:42.896Z,14.5
2018-07-25T04:40:44.546Z,14.6
2018-07-25T04:41:46.192Z,14.7
2018-07-25T04:42:47.839Z,14.7
2018-07-25T04:43:49.483Z,14.8
2018-07-25T04:44:51.136Z,14.8
2018-07-25T04:45:52.776Z,14.9
2018-07-25T04:46:54.419Z,14.7
2018-07-25T04:47:56.062Z,14.7
2018-07-25T04:48:57.710Z,14.8
2018-07-25T04:49:59.357Z,14.9
2018-07-25T04:51:01.000Z,15.0
2018-07-25T04:52:02.645Z,15.0
2018-07-25T04:53:04.287Z,15.0
2018-07-25T04:54:05.934Z,15.1
2018-07-25T04:55:07.578Z,15.3
2018-07-25T04:56:09.234Z,15.5
2018-07-25T04:57:10.872Z,15.8
2018-07-25T04:58:12.523Z,16.1
2018-07-25T04:59:14.172Z,16.5
2018-07-25T05:00:15.816Z,16.9
2018-07-25T05:01:17.459Z,17.3
2018-07-25T05:02:19.109Z,17.5
2018-07-25T05:03:20.787Z,17.7
2018-07-25T05:04:22.445Z,17.9
2018-07-25T05:05:24.087Z,18.2
2018-07-25T05:06:25.737Z,18.2
2018-07-25T05:07:27.382Z,18.4
2018-07-25T05:08:29.041Z,18.4
2018-07-25T05:09:30.698Z,18.7
2018-07-25T05:10:32.342Z,18.8
2018-07-25T05:11:34.002Z,18.9
2018-07-25T05:12:35.678Z,18.8
2018-07-25T05:13:37.303Z,18.9
2018-07-25T05:14:38.953Z,19.3
2018-07-25T05:15:40.596Z,19.5
2018-07-25T05:16:42.246Z,19.7
2018-07-25T05:17:43.927Z,19.8
2018-07-25T05:18:45.569Z,19.8
2018-07-25T05:19:47.224Z,19.9
2018-07-25T05:20:48.866Z,20.0
2018-07-25T05:21:50.548Z,20.3
2018-07-25T05:22:52.213Z,20.9
2018-07-25T05:23:53.854Z,20.3
2018-07-25T05:24:55.507Z,19.9
2018-07-25T05:25:57.152Z,20.0
2018-07-25T05:26:58.820Z,19.9
2018-07-25T05:28:00.484Z,19.8
2018-07-25T05:29:02.234Z,20.0
2018-07-25T05:30:03.946Z,20.1
2018-07-25T05:31:05.559Z,20.2
2018-07-25T05:32:07.208Z,20.5
2018-07-25T05:33:08.867Z,21.0
2018-07-25T05:34:10.518Z,20.8
2018-07-25T05:35:12.172Z,20.9
2018-07-25T05:36:13.814Z,22.0
2018-07-25T05:37:15.464Z,22.2
2018-07-25T05:38:17.167Z,21.5
2018-07-25T05:39:18.736Z,21.4
2018-07-25T05:40:20.386Z,21.3
2018-07-25T05:41:22.045Z,21.4
2018-07-25T05:42:23.698Z,21.5
2018-07-25T05:43:25.355Z,22.1
2018-07-25T05:44:27.009Z,22.2
2018-07-25T05:45:28.658Z,22.4
2018-07-25T05:46:30.313Z,21.9
2018-07-25T05:47:31.963Z,21.9
2018-07-25T05:48:33.618Z,22.4
2018-07-25T05:49:35.273Z,22.8
2018-07-25T05:50:36.962Z,22.7
2018-07-25T05:51:38.614Z,22.5
2018-07-25T05:52:40.255Z,21.9
2018-07-25T05:53:41.909Z,21.6
2018-07-25T05:54:43.559Z,22.0
2018-07-25T05:55:45.223Z,22.1
2018-07-25T06:01:55.550Z,23.5
2018-07-25T06:02:57.228Z,23.6
2018-07-25T06:04:49.126Z,24.5
2018-07-25T06:05:50.830Z,25.1
2018-07-25T06:07:42.691Z,26.3
2018-07-25T06:08:44.347Z,26.8
2018-07-25T06:10:36.272Z,27.2
2018-07-25T06:11:37.920Z,27.2
2018-07-25T06:13:29.830Z,27.2
2018-07-25T06:14:31.495Z,26.8
2018-07-25T06:16:24.044Z,24.9
2018-07-25T06:17:25.695Z,24.9
2018-07-25T06:18:27.356Z,25.2
2018-07-25T06:19:29.020Z,25.5
2018-07-25T06:20:30.664Z,25.3
2018-07-25T06:21:32.317Z,25.1
2018-07-25T06:22:33.966Z,24.9
2018-07-25T06:23:35.617Z,25.0
2018-07-25T06:24:37.284Z,24.8
2018-07-25T06:25:38.940Z,24.8
2018-07-25T06:26:40.594Z,25.6
2018-07-25T06:27:42.249Z,26.3
2018-07-25T06:28:43.901Z,27.1
2018-07-25T06:29:45.559Z,27.4
2018-07-25T06:30:47.216Z,28.3
2018-07-25T06:31:48.869Z,27.4
2018-07-25T06:32:50.527Z,26.8
2018-07-25T06:33:52.207Z,26.3
2018-07-25T06:34:53.917Z,25.8
2018-07-25T06:35:55.487Z,25.8
2018-07-25T06:36:57.162Z,25.8
2018-07-25T06:37:58.864Z,25.7
2018-07-25T06:39:00.474Z,25.5
2018-07-25T06:40:02.135Z,25.1
2018-07-25T06:41:03.793Z,25.1
2018-07-25T06:42:05.461Z,25.6
2018-07-25T06:43:07.123Z,26.2
2018-07-25T06:44:08.772Z,26.6
2018-07-25T06:45:10.443Z,27.0
2018-07-25T06:46:12.083Z,27.2
2018-07-25T06:47:13.738Z,27.5
2018-07-25T06:48:15.394Z,27.7
2018-07-25T06:49:17.051Z,27.5
2018-07-25T06:50:18.707Z,27.5
2018-07-25T06:51:20.369Z,27.4
2018-07-25T06:52:22.026Z,27.8
2018-07-25T06:53:23.684Z,28.4
2018-07-25T06:54:25.342Z,28.3
2018-07-25T06:55:26.993Z,28.5
2018-07-25T06:56:28.646Z,28.7
2018-07-25T06:57:30.892Z,29.0
2018-07-25T06:58:32.556Z,29.6
2018-07-25T06:59:34.216Z,30.1
2018-07-25T07:00:35.873Z,30.1
2018-07-25T07:01:37.521Z,29.8
2018-07-25T07:02:39.188Z,29.3
2018-07-25T07:03:40.837Z,29.0
2018-07-25T07:04:42.486Z,28.7
2018-07-25T07:05:44.152Z,28.5
2018-07-25T07:06:45.893Z,28.4
2018-07-25T07:07:47.468Z,28.2
2018-07-25T07:08:49.119Z,27.8
2018-07-25T07:09:50.771Z,27.9
2018-07-25T07:10:52.428Z,27.8
2018-07-25T07:11:54.082Z,27.8
2018-07-25T07:12:55.736Z,27.8
2018-07-25T07:13:57.395Z,27.8
2018-07-25T07:14:59.043Z,27.8
2018-07-25T07:16:00.707Z,27.9
2018-07-25T07:17:02.348Z,28.0
2018-07-25T07:18:04.007Z,28.0
2018-07-25T07:19:05.656Z,28.0
2018-07-25T07:20:07.329Z,28.0
2018-07-25T07:21:09.037Z,28.0
2018-07-25T07:22:10.687Z,28.0
2018-07-25T07:23:12.337Z,28.0
2018-07-25T07:24:13.992Z,28.3
2018-07-25T07:25:15.646Z,28.4
2018-07-25T07:26:17.310Z,28.4
2018-07-25T07:27:18.960Z,28.4
2018-07-25T07:28:20.617Z,28.5
2018-07-25T07:29:22.273Z,28.5
2018-07-25T07:30:23.918Z,28.6
2018-07-25T07:31:25.619Z,28.5
2018-07-25T07:32:27.186Z,28.7
2018-07-25T07:33:28.840Z,28.9
2018-07-25T07:34:30.499Z,29.4
2018-07-25T07:35:32.159Z,30.3
2018-07-25T07:36:33.808Z,31.2
2018-07-25T07:37:36.383Z,32.1
2018-07-25T07:38:38.001Z,32.6
2018-07-25T07:39:39.668Z,33.3
2018-07-25T07:40:41.319Z,33.7
2018-07-25T07:41:42.989Z,34.3
2018-07-25T07:42:44.660Z,33.9
2018-07-25T07:43:46.321Z,34.4
2018-07-25T07:44:47.981Z,34.9
2018-07-25T07:45:49.632Z,35.6
2018-07-25T07:46:51.432Z,36.0
2018-07-25T07:47:53.092Z,35.7
2018-07-25T07:48:54.753Z,36.2
2018-07-25T07:49:56.430Z,36.7
2018-07-25T07:50:58.093Z,35.8
2018-07-25T07:51:59.752Z,36.5
2018-07-25T07:53:01.414Z,37.0
2018-07-25T07:54:03.127Z,37.0
2018-07-25T07:55:04.917Z,37.3
2018-07-25T07:56:06.598Z,37.8
2018-07-25T07:57:08.262Z,38.1
2018-07-25T07:58:10.653Z,38.6
2018-07-25T07:59:12.323Z,38.8
2018-07-25T08:00:13.991Z,38.6
2018-07-25T08:01:15.784Z,38.8
2018-07-25T08:02:17.472Z,39.1
2018-07-25T08:03:19.127Z,39.4
2018-07-25T08:04:20.789Z,39.3
2018-07-25T08:05:22.465Z,39.4
2018-07-25T08:06:24.137Z,39.3
2018-07-25T08:07:25.802Z,38.6
2018-07-25T08:08:27.476Z,38.9
2018-07-25T08:09:29.146Z,39.1
2018-07-25T08:10:30.830Z,38.7
2018-07-25T08:11:32.473Z,39.2
2018-07-25T08:12:34.145Z,39.4
2018-07-25T08:13:35.810Z,40.1
2018-07-25T08:14:37.754Z,39.9
2018-07-25T08:15:39.405Z,40.1
2018-07-25T08:16:41.074Z,39.9
2018-07-25T08:17:42.872Z,39.3
2018-07-25T08:18:44.419Z,40.1
2018-07-25T08:19:46.255Z,39.6
2018-07-25T08:20:47.824Z,39.7
2018-07-25T08:21:49.476Z,39.9
2018-07-25T08:22:51.183Z,40.3
2018-07-25T08:23:53.760Z,39.8
2018-07-25T08:24:55.424Z,39.5
2018-07-25T08:25:57.092Z,40.1
2018-07-25T08:26:58.761Z,39.4
2018-07-25T08:28:00.416Z,40.2
2018-07-25T08:29:02.084Z,40.3
2018-07-25T08:30:03.751Z,40.1
2018-07-25T08:31:05.413Z,38.7
2018-07-25T08:32:07.327Z,38.3
2018-07-25T08:33:08.732Z,37.1
2018-07-25T08:34:10.399Z,38.7
2018-07-25T08:35:12.074Z,40.1
2018-07-25T08:36:13.724Z,40.2
2018-07-25T08:37:15.447Z,40.3
2018-07-25T08:38:17.106Z,38.5
2018-07-25T08:39:18.772Z,37.3
2018-07-25T08:40:20.444Z,36.4
2018-07-25T08:41:22.173Z,36.3
2018-07-25T08:42:23.735Z,36.3
2018-07-25T08:43:26.176Z,37.7
2018-07-25T08:44:27.851Z,38.3
2018-07-25T08:45:29.516Z,36.7
2018-07-25T08:46:31.181Z,37.5
2018-07-25T08:47:32.850Z,36.7
2018-07-25T08:48:34.507Z,37.5
2018-07-25T08:49:36.179Z,38.2
2018-07-25T08:50:37.845Z,39.0
2018-07-25T08:51:39.512Z,38.4
2018-07-25T08:52:41.335Z,37.5
2018-07-25T08:53:42.853Z,37.7
2018-07-25T08:54:44.517Z,36.4
2018-07-25T08:55:46.191Z,36.4
2018-07-25T08:56:47.849Z,36.9
2018-07-25T08:57:50.283Z,37.0
2018-07-25T08:58:51.900Z,37.4
2018-07-25T08:59:53.586Z,38.6
2018-07-25T09:00:55.433Z,39.1
2018-07-25T09:01:57.201Z,40.3
2018-07-25T09:02:58.783Z,40.7
2018-07-25T09:04:00.461Z,40.4
2018-07-25T09:05:02.128Z,41.1
2018-07-25T09:06:03.799Z,41.2
2018-07-25T09:07:05.455Z,41.2
2018-07-25T09:08:07.126Z,41.4
2018-07-25T09:09:08.795Z,41.2
2018-07-25T09:10:10.473Z,40.8
2018-07-25T09:11:12.142Z,41.2
2018-07-25T09:12:13.810Z,41.2
2018-07-25T09:13:15.474Z,40.8
2018-07-25T09:14:17.136Z,41.2
2018-07-25T09:15:18.803Z,40.5
2018-07-25T09:16:20.475Z,40.6
2018-07-25T09:17:22.168Z,40.6
2018-07-25T09:18:23.830Z,41.2
2018-07-25T09:19:25.531Z,39.6
2018-07-25T09:20:28.623Z,40.5
2018-07-25T09:21:31.682Z,40.6
2018-07-25T09:22:34.514Z,41.2
2018-07-25T09:23:37.477Z,41.5
2018-07-25T09:24:40.676Z,41.4
2018-07-25T09:25:43.648Z,41.4
2018-07-25T09:26:46.441Z,41.6
2018-07-25T09:27:49.344Z,41.1
2018-07-25T09:28:52.158Z,40.6
2018-07-25T09:29:54.856Z,40.2
2018-07-25T09:30:57.601Z,40.2
2018-07-25T09:31:59.297Z,40.2
2018-07-25T09:33:00.973Z,38.2
2018-07-25T09:34:02.676Z,37.1
2018-07-25T09:35:04.476Z,37.7
2018-07-25T09:36:06.111Z,37.8
2018-07-25T09:37:07.775Z,37.9
2018-07-25T09:38:09.454Z,37.2
2018-07-25T09:39:11.270Z,37.8
2018-07-25T09:40:12.941Z,38.0
2018-07-25T09:41:14.620Z,38.1
2018-07-25T09:42:16.281Z,38.3
2018-07-25T09:43:18.740Z,39.4
2018-07-25T09:44:20.511Z,37.9
2018-07-25T09:45:22.184Z,38.2
2018-07-25T09:46:25.431Z,39.0
2018-07-25T09:47:28.252Z,39.0
2018-07-25T09:48:31.125Z,39.3
2018-07-25T09:49:32.707Z,39.7
2018-07-25T09:50:34.394Z,39.8
2018-07-25T09:51:37.218Z,39.6
2018-07-25T09:52:38.888Z,39.9
2018-07-25T09:53:40.568Z,40.3
2018-07-25T09:54:42.228Z,38.7
2018-07-25T10:01:31.344Z,38.0
2018-07-25T10:02:33.333Z,39.2
2018-07-25T10:03:35.062Z,40.2
2018-07-25T10:04:36.722Z,39.5
2018-07-25T10:05:38.395Z,39.0
2018-07-25T10:06:40.061Z,38.6
2018-07-25T10:07:41.810Z,38.7
2018-07-25T10:08:43.360Z,38.1
2018-07-25T10:09:45.011Z,39.1
2018-07-25T10:10:46.646Z,37.7
2018-07-25T10:11:48.337Z,38.6
2018-07-25T10:12:50.026Z,37.9
2018-07-25T10:13:51.674Z,37.9
2018-07-25T10:14:53.363Z,38.0
2018-07-25T10:15:55.055Z,38.0
2018-07-25T10:16:56.748Z,38.0
2018-07-25T10:17:58.412Z,37.5
2018-07-25T10:19:00.077Z,36.5
2018-07-25T10:20:01.752Z,37.3
2018-07-25T10:21:03.440Z,37.3
2018-07-25T10:22:05.118Z,36.5
2018-07-25T10:23:06.784Z,37.6
2018-07-25T10:24:08.441Z,39.2
2018-07-25T10:25:10.134Z,39.9
2018-07-25T10:26:11.797Z,40.1
2018-07-25T10:27:13.482Z,40.2
2018-07-25T10:28:15.120Z,40.6
2018-07-25T10:29:16.779Z,40.1
2018-07-25T10:30:18.476Z,38.6
2018-07-25T10:31:20.129Z,37.5
2018-07-25T10:32:21.795Z,37.5
2018-07-25T10:33:23.459Z,38.9
2018-07-25T10:34:25.134Z,37.7
2018-07-25T10:35:26.801Z,38.0
2018-07-25T10:36:28.500Z,38.7
2018-07-25T10:37:30.157Z,38.1
2018-07-25T10:38:31.839Z,37.8
2018-07-25T10:39:33.511Z,37.1
2018-07-25T10:40:36.083Z,36.9
2018-07-25T10:41:37.775Z,37.6
2018-07-25T10:42:39.445Z,37.8
2018-07-25T10:43:41.088Z,39.4
2018-07-25T10:44:42.762Z,40.3
2018-07-25T10:45:44.467Z,41.2
2018-07-25T10:46:46.061Z,42.0
2018-07-25T10:47:47.690Z,41.9
2018-07-25T10:48:49.371Z,41.0
2018-07-25T10:49:51.031Z,41.8
2018-07-25T10:50:52.692Z,42.4
2018-07-25T10:51:54.374Z,42.8
2018-07-25T10:52:56.656Z,43.5
2018-07-25T10:53:58.334Z,42.8
2018-07-25T10:55:00.016Z,42.8
2018-07-25T10:56:01.814Z,42.7
2018-07-25T10:57:03.362Z,41.2
2018-07-25T10:58:05.028Z,41.5
2018-07-25T10:59:06.713Z,40.3
2018-07-25T11:00:08.370Z,40.1
2018-07-25T11:01:10.041Z,39.7
2018-07-25T11:02:11.773Z,40.6
2018-07-25T11:03:13.395Z,39.1
2018-07-25T11:04:15.058Z,39.3
2018-07-25T11:05:16.728Z,38.2
2018-07-25T11:06:18.411Z,38.5
2018-07-25T11:07:20.080Z,38.1
2018-07-25T11:08:21.760Z,38.0
2018-07-25T11:09:23.417Z,39.1
2018-07-25T11:10:25.089Z,37.7
2018-07-25T11:11:26.795Z,38.5
2018-07-25T11:12:28.467Z,38.1
2018-07-25T11:13:30.156Z,38.6
2018-07-25T11:14:31.820Z,38.2
2018-07-25T11:15:33.487Z,36.8
2018-07-25T11:16:35.324Z,36.4
2018-07-25T11:17:36.952Z,35.5
2018-07-25T11:18:38.620Z,34.6
2018-07-25T11:19:40.277Z,34.8
2018-07-25T11:20:42.765Z,34.9
2018-07-25T11:21:44.426Z,35.2
2018-07-25T11:22:46.085Z,35.2
2018-07-25T11:23:47.749Z,34.8
2018-07-25T11:24:49.414Z,34.5
2018-07-25T11:25:51.081Z,33.9
2018-07-25T11:26:52.741Z,33.6
2018-07-25T11:27:54.431Z,33.8
2018-07-25T11:28:56.088Z,34.2
2018-07-25T11:29:57.742Z,34.1
2018-07-25T11:30:59.404Z,34.3
2018-07-25T11:32:01.099Z,33.7
2018-07-25T11:33:02.777Z,33.6
2018-07-25T11:34:04.444Z,32.8
2018-07-25T11:35:06.110Z,33.2
2018-07-25T11:36:07.766Z,33.3
2018-07-25T11:37:09.431Z,32.8
2018-07-25T11:38:11.111Z,32.8
2018-07-25T11:39:12.750Z,32.5
2018-07-25T11:40:14.411Z,32.9
2018-07-25T11:41:16.584Z,33.2
2018-07-25T11:42:18.253Z,33.9
2018-07-25T11:43:19.913Z,34.1
2018-07-25T11:44:21.572Z,35.6
2018-07-25T11:45:23.237Z,35.7
2018-07-25T11:46:24.906Z,35.4
2018-07-25T11:47:26.585Z,35.6
2018-07-25T11:48:28.255Z,35.2
2018-07-25T11:49:29.909Z,35.9
2018-07-25T11:50:31.569Z,37.0
2018-07-25T11:51:33.236Z,37.2
2018-07-25T11:52:34.900Z,37.0
2018-07-25T11:53:36.559Z,36.8
2018-07-25T11:54:38.243Z,36.8
2018-07-25T11:55:39.997Z,36.7
2018-07-25T11:56:41.542Z,37.5
2018-07-25T11:57:43.204Z,37.3
2018-07-25T11:58:44.877Z,36.7
2018-07-25T11:59:46.546Z,35.6
2018-07-25T12:00:48.808Z,35.7
2018-07-25T12:01:50.538Z,35.9
2018-07-25T12:02:52.141Z,36.2
2018-07-25T12:03:53.807Z,36.0
2018-07-25T12:04:55.475Z,35.3
2018-07-25T12:05:57.156Z,35.5
2018-07-25T14:01:06.441Z,35.2
2018-07-25T14:02:08.136Z,35.8
2018-07-25T14:04:00.001Z,35.4
2018-07-25T14:05:01.633Z,35.8
2018-07-25T14:06:04.477Z,36.4
2018-07-25T14:07:07.596Z,36.4
2018-07-25T14:08:10.181Z,35.6
2018-07-25T14:09:13.642Z,35.7
2018-07-25T14:10:16.686Z,34.9
2018-07-25T14:11:18.529Z,34.4
2018-07-25T14:12:20.252Z,34.1
2018-07-25T14:13:22.022Z,33.6
2018-07-25T14:14:23.813Z,33.9
2018-07-25T14:15:25.515Z,33.7
2018-07-25T14:16:27.209Z,34.0
2018-07-25T14:17:28.882Z,34.1
2018-07-25T14:18:31.270Z,34.1
2018-07-25T14:19:33.905Z,34.1
2018-07-25T14:20:36.121Z,34.4
2018-07-25T14:21:37.821Z,34.3
2018-07-25T14:22:39.575Z,35.3
2018-07-25T14:23:41.544Z,35.8
2018-07-25T14:24:43.316Z,35.9
2018-07-25T14:25:45.001Z,35.4
2018-07-25T14:26:46.808Z,35.8
2018-07-25T14:27:48.586Z,35.1
2018-07-25T14:28:50.533Z,34.8
2018-07-25T14:29:53.413Z,34.4
2018-07-25T14:30:56.735Z,34.4
2018-07-25T14:32:00.071Z,33.9
2018-07-25T14:33:03.316Z,33.6
2018-07-25T14:34:06.770Z,34.4
2018-07-25T14:35:11.434Z,35.3
2018-07-25T14:36:14.063Z,35.9
2018-07-25T14:37:16.929Z,36.0
2018-07-25T14:38:18.608Z,37.0
2018-07-25T14:39:21.722Z,37.1
2018-07-25T14:40:25.308Z,37.8
2018-07-25T14:41:29.328Z,37.8
2018-07-25T14:42:32.777Z,37.8
2018-07-25T14:43:38.115Z,38.2
2018-07-25T14:44:39.901Z,36.8
2018-07-25T14:45:42.431Z,37.0
2018-07-25T14:46:44.174Z,36.5
2018-07-25T14:47:45.917Z,36.0
2018-07-25T14:48:47.672Z,35.5
2018-07-25T14:49:49.394Z,34.6
2018-07-25T14:50:51.183Z,34.0
2018-07-25T14:51:52.979Z,34.1
2018-07-25T14:52:54.713Z,33.9
2018-07-25T14:53:56.540Z,34.1
2018-07-25T14:54:58.956Z,34.2
2018-07-25T14:56:00.373Z,34.9
2018-07-25T14:57:02.423Z,35.1
2018-07-25T14:58:04.417Z,35.6
2018-07-25T14:59:06.533Z,35.7
2018-07-25T15:00:09.489Z,35.9
2018-07-25T15:01:14.018Z,34.8
2018-07-25T15:02:18.065Z,34.7
2018-07-25T15:03:21.018Z,34.5
2018-07-25T15:04:23.871Z,33.8
2018-07-25T15:05:26.832Z,33.5
2018-07-25T15:06:28.317Z,33.4
2018-07-25T15:07:31.723Z,33.4
2018-07-25T15:08:34.730Z,33.5
2018-07-25T15:09:37.519Z,33.2
2018-07-25T15:10:40.612Z,33.4
2018-07-25T15:11:43.631Z,33.4
2018-07-25T15:12:46.695Z,32.8
2018-07-25T15:13:48.631Z,32.8
2018-07-25T15:14:51.705Z,32.8
2018-07-25T15:15:54.513Z,32.9
2018-07-25T15:16:57.216Z,32.8
2018-07-25T15:17:59.199Z,32.7
2018-07-25T15:19:00.830Z,32.6
2018-07-25T15:20:02.499Z,32.9
2018-07-25T15:21:04.152Z,32.8
2018-07-25T15:22:05.821Z,32.5
2018-07-25T15:23:07.506Z,32.7
2018-07-25T15:24:09.158Z,32.6
2018-07-25T15:25:10.817Z,32.9
2018-07-25T15:26:12.471Z,32.6
2018-07-25T15:27:14.148Z,32.5
2018-07-25T15:28:15.855Z,32.5
2018-07-25T15:29:17.442Z,32.6
2018-07-25T15:30:19.132Z,32.8
2018-07-25T15:31:20.797Z,32.6
2018-07-25T15:32:23.051Z,32.7
2018-07-25T15:33:24.708Z,32.4
2018-07-25T15:34:26.372Z,32.6
2018-07-25T15:35:28.028Z,32.4
2018-07-25T15:36:29.695Z,32.5
2018-07-25T15:37:31.361Z,32.3
2018-07-25T15:38:33.011Z,32.3
2018-07-25T15:39:34.902Z,32.4
2018-07-25T15:40:36.559Z,32.3
2018-07-25T15:41:38.221Z,32.3
2018-07-25T15:42:39.871Z,32.4
2018-07-25T15:43:41.528Z,32.3
2018-07-25T15:44:43.201Z,32.3
2018-07-25T15:45:44.858Z,32.4
2018-07-25T15:46:46.535Z,32.4
2018-07-25T15:47:48.153Z,32.4
2018-07-25T15:48:49.811Z,32.8
2018-07-25T15:49:51.473Z,32.9
2018-07-25T15:50:53.166Z,32.8
2018-07-25T15:51:54.812Z,32.9
2018-07-25T15:52:56.888Z,32.7
2018-07-25T15:53:58.519Z,32.3
2018-07-25T15:55:00.167Z,32.5
2018-07-25T15:56:01.828Z,32.6
2018-07-25T15:57:03.487Z,32.3
2018-07-25T15:58:05.724Z,32.4
2018-07-25T15:59:07.375Z,31.9
2018-07-25T16:00:09.055Z,32.0
2018-07-25T16:01:10.729Z,32.3
2018-07-25T16:02:12.374Z,32.7
2018-07-25T16:03:14.030Z,32.7
2018-07-25T16:04:15.682Z,32.6
2018-07-25T16:05:17.352Z,33.2